createdAt,value
2019-02-25T00:00:47.604Z,34.57
2019-02-25T00:05:55.956Z,36.98
2019-02-25T00:11:04.352Z,36.86
2019-02-25T00:16:24.418Z,34.96
2019-02-25T00:21:12.604Z,35.33
2019-02-25T00:26:19.993Z,34.28
2019-02-25T00:31:27.091Z,33.87
2019-02-25T00:36:35.493Z,33.66
2019-02-25T00:41:43.709Z,35.97
2019-02-25T00:47:03.918Z,33.79
2019-02-25T00:51:51.128Z,34.30
2019-02-25T01:01:59.183Z,31.82
2019-02-25T01:07:06.363Z,31.51
2019-02-25T01:12:14.597Z,30.21
2019-02-25T01:17:21.820Z,29.75
2019-02-25T01:22:42.921Z,30.84
2019-02-25T01:27:30.312Z,31.42
2019-02-25T01:32:38.757Z,29.95
2019-02-25T01:37:46.528Z,30.70
2019-02-25T01:42:54.726Z,29.59
2019-02-25T01:48:02.127Z,31.09
2019-02-25T01:53:09.235Z,30.10
2019-02-25T01:58:17.398Z,30.93
2019-02-25T02:03:25.660Z,30.93
2019-02-25T02:08:33.004Z,31.05
2019-02-25T02:13:40.075Z,30.29
2019-02-25T02:18:48.493Z,30.76
2019-02-25T02:24:08.676Z,30.72
2019-02-25T02:29:08.795Z,29.61
2019-02-25T02:33:57.099Z,29.08
2019-02-25T02:39:04.318Z,29.01
2019-02-25T02:44:11.553Z,28.65
2019-02-25T02:49:19.939Z,29.08
2019-02-25T02:54:27.176Z,29.02
2019-02-25T02:59:34.356Z,31.34
2019-02-25T03:04:42.426Z,29.75
2019-02-25T03:09:50.800Z,29.88
2019-02-25T03:14:57.855Z,28.66
2019-02-25T03:20:06.231Z,29.00
2019-02-25T03:25:14.420Z,28.64
2019-02-25T03:30:21.749Z,28.24
2019-02-25T03:35:28.820Z,27.49
2019-02-25T03:40:37.194Z,28.34
2019-02-25T03:45:44.267Z,28.82
2019-02-25T03:50:52.529Z,31.20
2019-02-25T03:56:13.655Z,28.66
2019-02-25T04:01:01.199Z,26.71
2019-02-25T04:06:08.473Z,26.29
2019-02-25T04:11:15.746Z,26.42
2019-02-25T04:16:24.002Z,26.10
2019-02-25T04:21:31.405Z,27.50
2019-02-25T04:26:38.648Z,25.96
2019-02-25T04:31:45.992Z,27.57
2019-02-25T04:36:54.183Z,25.98
2019-02-25T04:42:01.554Z,27.27
2019-02-25T04:47:08.665Z,26.55
2019-02-25T04:52:18.150Z,26.67
2019-02-25T04:57:24.701Z,26.49
2019-02-25T05:02:33.037Z,26.61
2019-02-25T05:07:41.294Z,26.09
2019-02-25T05:12:48.807Z,26.75
2019-02-25T05:17:56.022Z,26.13
2019-02-25T05:23:03.523Z,26.36
2019-02-25T05:28:10.826Z,26.46
2019-02-25T05:33:31.074Z,25.23
2019-02-25T05:38:19.250Z,26.24
2019-02-25T05:43:26.448Z,25.49
2019-02-25T05:48:34.696Z,26.25
2019-02-25T05:53:41.997Z,26.06
2019-02-25T05:58:50.192Z,23.68
2019-02-25T06:03:57.509Z,26.40
2019-02-25T06:09:05.795Z,24.76
2019-02-25T06:14:13.200Z,24.94
2019-02-25T06:19:20.404Z,24.59
2019-02-25T06:29:35.577Z,24.09
2019-02-25T06:34:43.870Z,24.91
2019-02-25T06:39:51.973Z,24.15
2019-02-25T06:45:13.216Z,24.50
2019-02-25T06:50:00.496Z,24.56
2019-02-25T06:55:07.858Z,22.92
2019-02-25T07:00:14.917Z,24.13
2019-02-25T07:05:23.134Z,22.41
2019-02-25T07:10:31.385Z,23.27
2019-02-25T07:15:38.742Z,23.15
2019-02-25T07:21:52.740Z,29.42
2019-02-25T07:27:01.094Z,23.31
2019-02-25T07:32:08.289Z,24.05
2019-02-25T07:37:15.622Z,23.60
2019-02-25T07:42:24.136Z,24.32
2019-02-25T07:47:31.628Z,23.57
2019-02-25T07:52:38.779Z,23.05
2019-02-25T07:57:59.949Z,23.57
2019-02-25T08:02:48.079Z,24.80
2019-02-25T08:07:56.329Z,26.52
2019-02-25T08:13:17.425Z,28.74
2019-02-25T08:18:04.900Z,31.87
2019-02-25T08:23:12.968Z,30.39
2019-02-25T08:28:21.332Z,33.31
2019-02-25T08:33:29.546Z,39.09
2019-02-25T08:38:36.963Z,48.32
2019-02-25T08:43:44.158Z,43.16
2019-02-25T08:48:51.521Z,38.01
2019-02-25T08:54:14.539Z,33.43
2019-02-25T08:59:02.901Z,29.13
2019-02-25T09:04:09.975Z,25.41
2019-02-25T09:09:18.196Z,24.40
2019-02-25T09:14:26.282Z,23.67
2019-02-25T09:19:34.482Z,22.07
2019-02-25T09:24:55.530Z,22.02
2019-02-25T09:29:56.774Z,21.46
2019-02-25T09:34:43.942Z,20.80
2019-02-25T09:39:52.543Z,19.46
2019-02-25T09:45:12.872Z,20.29
2019-02-25T09:50:03.497Z,18.88
2019-02-25T09:55:23.840Z,19.78
2019-02-25T10:00:23.872Z,18.17
2019-02-25T10:05:11.113Z,19.16
2019-02-25T10:10:18.506Z,19.68
2019-02-25T10:15:25.626Z,18.88
2019-02-25T10:20:33.888Z,18.60
2019-02-25T10:25:54.062Z,18.20
2019-02-25T10:30:41.541Z,17.96
2019-02-25T10:35:48.796Z,16.53
2019-02-25T10:40:56.252Z,16.27
2019-02-25T10:46:04.646Z,16.49
2019-02-25T10:51:13.618Z,15.77
2019-02-25T10:56:19.990Z,15.09
2019-02-25T11:01:26.641Z,15.24
2019-02-25T11:06:36.004Z,15.23
2019-02-25T11:11:42.312Z,15.17
2019-02-25T11:16:50.478Z,14.87
2019-02-25T11:21:56.928Z,14.94
2019-02-25T11:27:05.185Z,14.80
2019-02-25T11:32:14.022Z,14.82
2019-02-25T11:37:12.054Z,14.80
2019-02-25T11:42:20.612Z,14.30
2019-02-25T11:47:27.680Z,15.91
2019-02-25T11:52:35.950Z,15.00
2019-02-25T11:57:43.148Z,15.80
2019-02-25T12:02:50.483Z,15.50
2019-02-25T12:07:58.816Z,16.08
2019-02-25T12:13:05.962Z,15.57
2019-02-25T12:18:14.194Z,13.97
2019-02-25T12:23:21.345Z,14.29
2019-02-25T12:28:29.530Z,12.90
2019-02-25T12:33:49.688Z,13.15
2019-02-25T12:38:50.687Z,13.09
2019-02-25T12:43:38.937Z,12.74
2019-02-25T12:48:47.190Z,13.48
2019-02-25T12:53:55.671Z,12.81
2019-02-25T12:59:02.211Z,12.87
2019-02-25T13:04:09.628Z,11.86
2019-02-25T13:09:16.717Z,12.51
2019-02-25T13:14:24.918Z,12.54
2019-02-25T13:19:45.888Z,12.81
2019-02-25T13:24:35.193Z,12.29
2019-02-25T13:29:41.489Z,13.04
2019-02-25T13:34:48.825Z,13.27
2019-02-25T13:39:55.920Z,12.29
2019-02-25T13:45:04.259Z,13.24
2019-02-25T13:50:11.435Z,13.39
2019-02-25T13:55:31.787Z,12.43
2019-02-25T14:00:19.001Z,12.48
2019-02-25T14:05:27.228Z,13.13
2019-02-25T14:10:35.314Z,12.84
2019-02-25T14:15:42.698Z,11.36
2019-02-25T14:20:50.826Z,11.76
2019-02-25T14:25:59.176Z,12.68
2019-02-25T14:31:05.550Z,10.93
2019-02-25T14:36:28.246Z,11.18
2019-02-25T14:41:13.725Z,10.74
2019-02-25T14:46:33.320Z,11.34
2019-02-25T14:51:35.280Z,10.03
2019-02-25T14:56:34.569Z,10.11
2019-02-25T15:01:24.676Z,10.29
2019-02-25T15:06:43.099Z,10.23
2019-02-25T15:11:31.304Z,10.11
2019-02-25T15:16:38.549Z,10.63
2019-02-25T15:21:47.606Z,10.50
2019-02-25T15:26:57.237Z,10.49
2019-02-25T15:32:14.529Z,10.41
2019-02-25T15:37:04.653Z,11.28
2019-02-25T15:42:10.028Z,10.68
2019-02-25T15:47:30.270Z,12.62
2019-02-25T15:52:18.843Z,12.61
2019-02-25T15:57:26.406Z,13.04
2019-02-25T16:02:45.267Z,13.88
2019-02-25T16:07:33.802Z,13.66
2019-02-25T16:12:39.706Z,13.85
2019-02-25T16:17:49.633Z,14.67
2019-02-25T16:22:56.589Z,14.83
2019-02-25T16:28:02.435Z,14.56
2019-02-25T16:33:12.684Z,15.16
2019-02-25T16:38:21.150Z,15.00
2019-02-25T16:43:38.073Z,16.00
2019-02-25T16:48:26.466Z,15.43
2019-02-25T16:58:34.073Z,15.75
2019-02-25T17:03:41.493Z,15.86
2019-02-25T17:08:48.848Z,14.64
2019-02-25T17:13:57.114Z,15.62
2019-02-25T17:19:15.629Z,14.93
2019-02-25T17:24:07.379Z,15.30
2019-02-25T17:29:03.989Z,16.04
2019-02-25T17:34:12.574Z,15.21
2019-02-25T17:39:19.200Z,16.70
2019-02-25T17:44:28.364Z,15.37
2019-02-25T17:49:35.841Z,15.95
2019-02-25T17:54:42.645Z,16.66
2019-02-25T18:00:02.809Z,16.89
2019-02-25T18:04:51.285Z,17.07
2019-02-25T18:15:03.221Z,17.54
2019-02-25T18:25:12.227Z,18.18
2019-02-25T18:30:20.689Z,16.52
2019-02-25T18:35:41.618Z,17.06
2019-02-25T18:40:43.332Z,17.20
2019-02-25T18:45:28.633Z,16.01
2019-02-25T18:50:50.159Z,18.45
2019-02-25T18:55:36.155Z,17.59
2019-02-25T19:00:57.180Z,18.69
2019-02-25T19:05:57.446Z,18.98
2019-02-25T19:10:57.290Z,20.39
2019-02-25T19:15:44.163Z,19.11
2019-02-25T19:20:51.606Z,19.48
2019-02-25T19:25:58.872Z,19.21
2019-02-25T19:31:08.790Z,18.47
2019-02-25T19:36:15.677Z,17.65
2019-02-25T19:41:24.531Z,18.78
2019-02-25T19:46:30.337Z,18.75
2019-02-25T19:56:38.637Z,18.92
2019-02-25T20:01:46.101Z,18.60
2019-02-25T20:06:55.630Z,18.73
2019-02-25T20:12:01.937Z,19.54
2019-02-25T20:22:11.865Z,18.90
2019-02-25T20:27:17.448Z,19.24
2019-02-25T20:32:40.255Z,19.17
2019-02-25T20:37:27.377Z,20.10
2019-02-25T20:42:33.459Z,19.31
2019-02-25T20:47:55.212Z,20.28
2019-02-25T20:52:42.531Z,19.12
2019-02-25T20:57:49.117Z,19.35
2019-02-25T21:02:56.577Z,20.84
2019-02-25T21:08:03.616Z,20.69
2019-02-25T21:13:11.387Z,22.11
2019-02-25T21:18:20.140Z,24.12
2019-02-25T21:23:26.101Z,24.41
2019-02-25T21:28:33.602Z,29.46
2019-02-25T21:33:44.816Z,30.35
2019-02-25T21:38:49.494Z,32.62
2019-02-25T21:43:57.051Z,31.62
2019-02-25T21:49:03.959Z,28.96
2019-02-25T21:54:09.937Z,23.87
2019-02-25T21:59:18.003Z,21.25
2019-02-25T22:04:25.214Z,20.15
2019-02-25T22:09:37.822Z,19.78
2019-02-25T22:14:41.192Z,18.85
2019-02-25T22:19:48.455Z,17.71
2019-02-25T22:24:55.148Z,18.47
2019-02-25T22:30:04.740Z,18.21
2019-02-25T22:35:23.502Z,17.84
2019-02-25T22:40:12.427Z,18.11
2019-02-25T22:45:19.065Z,17.97
2019-02-25T22:50:27.516Z,17.60
2019-02-25T22:55:36.817Z,17.93
2019-02-25T23:00:41.764Z,17.18
2019-02-25T23:05:50.084Z,17.16
2019-02-25T23:10:55.446Z,17.41
2019-02-25T23:16:02.560Z,16.86
2019-02-25T23:21:10.623Z,17.33
2019-02-25T23:26:19.885Z,17.91
2019-02-25T23:31:29.645Z,17.34
2019-02-25T23:36:33.536Z,18.45
2019-02-25T23:41:43.578Z,16.49
2019-02-25T23:46:57.670Z,17.76
2019-02-25T23:51:50.791Z,18.21
2019-02-25T23:57:00.167Z,16.88
